Time;durP1;ratioP1;P1;durP2;ratioP2;P2;SDS_P1;SDS_P2;PMS_P1;PMS_P2;Temp;Humidity;BMP_temperature;BMP_pressure;BME280_temperature;BME280_humidity;BME280_pressure;Samples;Min_cycle;Max_cycle;Signal;HPM_P1;HPM_P2
2022/08/22 00:00:48;;;;;;;4.80;4.40;;;23.50;67.40;;;;;;5049641;28;20498;-67
2022/08/22 00:03:30;;;;;;;4.83;4.53;;;23.50;68.00;;;;;;5043920;28;21042;-67
2022/08/22 00:06:16;;;;;;;5.00;4.60;;;23.50;67.50;;;;;;5044586;28;20443;-67
2022/08/22 00:08:58;;;;;;;3.43;3.23;;;23.40;67.10;;;;;;5048743;28;20450;-68
2022/08/22 00:11:40;;;;;;;4.60;4.20;;;23.50;68.00;;;;;;5063720;28;20498;-67
2022/08/22 00:14:17;;;;;;;4.90;4.40;;;23.70;68.90;;;;;;5064731;28;20470;-68
2022/08/22 00:16:56;;;;;;;3.70;3.50;;;23.80;68.10;;;;;;5050809;28;20487;-67
2022/08/22 00:19:35;;;;;;;3.43;3.23;;;24.10;69.70;;;;;;5059881;28;20487;-70
2022/08/22 00:22:07;;;;;;;5.70;3.80;;;24.40;69.90;;;;;;5047378;28;20541;-67
2022/08/22 00:24:41;;;;;;;3.50;3.20;;;24.70;68.70;;;;;;5042984;28;20978;-70
2022/08/22 00:27:16;;;;;;;4.60;3.87;;;24.90;68.70;;;;;;5046090;28;20489;-68
2022/08/22 00:29:50;;;;;;;3.93;3.60;;;25.00;65.50;;;;;;5052036;28;20451;-71
2022/08/22 00:32:25;;;;;;;3.80;3.50;;;25.00;67.50;;;;;;5059871;28;20445;-67
2022/08/22 00:34:59;;;;;;;4.97;4.50;;;25.10;65.10;;;;;;5056642;28;20911;-67
2022/08/22 00:37:35;;;;;;;5.57;4.53;;;24.90;64.00;;;;;;5040619;28;21015;-66
2022/08/22 00:40:20;;;;;;;5.00;4.50;;;24.60;64.30;;;;;;5062393;28;20481;-67
2022/08/22 00:43:21;;;;;;;4.33;4.03;;;24.30;64.50;;;;;;5048934;28;20459;-67
2022/08/22 00:46:14;;;;;;;5.33;4.43;;;24.20;64.60;;;;;;5049016;28;20906;-67
2022/08/22 00:49:14;;;;;;;4.73;4.30;;;24.00;65.20;;;;;;5047013;28;20450;-67
2022/08/22 00:52:24;;;;;;;4.40;4.00;;;23.80;66.20;;;;;;5044105;28;20992;-66
2022/08/22 00:55:20;;;;;;;5.53;5.03;;;23.60;65.90;;;;;;5045828;28;20597;-67
2022/08/22 00:58:05;;;;;;;5.07;4.53;;;23.50;66.40;;;;;;5066914;28;20497;-68
2022/08/22 01:00:42;;;;;;;4.53;4.13;;;23.40;66.70;;;;;;5064234;28;20827;-67
2022/08/22 01:03:27;;;;;;;4.80;4.30;;;23.30;67.00;;;;;;5065404;28;20512;-67
2022/08/22 01:06:16;;;;;;;4.70;4.30;;;23.40;69.30;;;;;;5053114;28;20984;-67
2022/08/22 01:09:00;;;;;;;5.20;4.70;;;23.40;68.40;;;;;;5061327;28;20493;-71
2022/08/22 01:11:50;;;;;;;4.87;4.37;;;23.40;68.00;;;;;;5062139;28;20449;-67
2022/08/22 01:14:34;;;;;;;5.63;4.50;;;23.30;66.70;;;;;;5058833;28;20506;-69
2022/08/22 01:17:26;;;;;;;5.23;4.83;;;23.20;67.80;;;;;;5059393;28;21029;-67
2022/08/22 01:20:34;;;;;;;5.53;4.80;;;23.20;67.80;;;;;;5044910;28;20519;-70
2022/08/22 01:23:35;;;;;;;5.07;4.57;;;23.10;67.30;;;;;;5050502;28;20443;-67
2022/08/22 01:26:39;;;;;;;5.40;4.47;;;22.90;67.40;;;;;;5058520;28;20564;-66
2022/08/22 01:29:54;;;;;;;5.03;4.63;;;22.80;67.80;;;;;;5055226;28;20524;-67
2022/08/22 01:33:10;;;;;;;4.87;4.53;;;22.80;67.80;;;;;;5058981;28;20487;-66
2022/08/22 01:36:15;;;;;;;7.33;4.37;;;22.90;67.20;;;;;;5051927;28;20528;-68
2022/08/22 01:39:23;;;;;;;4.60;4.20;;;22.80;68.30;;;;;;5061079;28;20508;-66
2022/08/22 01:42:37;;;;;;;5.80;5.17;;;22.70;68.00;;;;;;5057122;28;20576;-66
2022/08/22 01:45:36;;;;;;;6.30;4.70;;;22.80;67.80;;;;;;5047259;28;20552;-69
2022/08/22 01:48:09;;;;;;;4.97;4.47;;;23.00;68.20;;;;;;5047760;28;20510;-68
2022/08/22 01:50:42;;;;;;;4.50;4.10;;;22.90;67.80;;;;;;5059232;28;20988;-66
2022/08/22 01:53:17;;;;;;;5.00;4.50;;;22.90;69.10;;;;;;5047839;28;20483;-67
2022/08/22 01:55:58;;;;;;;5.27;4.20;;;22.80;67.70;;;;;;5054049;28;20462;-68
2022/08/22 01:58:30;;;;;;;6.17;5.67;;;22.90;67.70;;;;;;5052186;28;20523;-68
2022/08/22 02:01:13;;;;;;;4.57;4.17;;;22.90;69.20;;;;;;5050487;28;20480;-67
2022/08/22 02:03:56;;;;;;;5.27;4.77;;;22.90;69.60;;;;;;5054396;28;20580;-67
2022/08/22 02:06:34;;;;;;;4.60;4.30;;;22.90;67.30;;;;;;5057231;28;20466;-66
2022/08/22 02:09:08;;;;;;;4.60;4.30;;;22.90;69.40;;;;;;5054178;28;20443;-67
2022/08/22 02:11:44;;;;;;;4.53;4.13;;;22.80;67.60;;;;;;5047548;28;20450;-66
2022/08/22 02:14:29;;;;;;;5.90;5.30;;;22.70;67.70;;;;;;5064605;28;20527;-66
2022/08/22 02:17:12;;;;;;;4.60;4.20;;;22.70;67.30;;;;;;5053796;28;20489;-67
2022/08/22 02:19:49;;;;;;;4.60;4.20;;;22.70;68.60;;;;;;5040467;28;20450;-67
2022/08/22 02:22:29;;;;;;;5.07;4.57;;;22.60;68.20;;;;;;5053425;28;20440;-67
2022/08/22 02:25:04;;;;;;;4.67;4.27;;;22.50;68.20;;;;;;5042617;28;20449;-66
2022/08/22 02:27:50;;;;;;;4.90;4.53;;;22.40;67.40;;;;;;5052803;28;20449;-67
2022/08/22 02:30:21;;;;;;;3.90;3.60;;;22.30;67.60;;;;;;5049094;28;20528;-67
2022/08/22 02:33:00;;;;;;;5.13;4.57;;;22.20;67.40;;;;;;5061454;28;20440;-66
2022/08/22 02:35:32;;;;;;;4.53;4.13;;;22.20;67.70;;;;;;5056964;28;21332;-66
2022/08/22 02:38:14;;;;;;;3.93;3.63;;;22.10;68.10;;;;;;5051752;28;21481;-69
2022/08/22 02:40:48;;;;;;;5.50;4.07;;;22.10;68.20;;;;;;5049697;28;20517;-66
2022/08/22 02:43:23;;;;;;;6.90;4.27;;;22.20;67.70;;;;;;5055156;28;20949;-67
2022/08/22 02:46:12;;;;;;;3.53;3.23;;;22.10;67.90;;;;;;5056337;28;20562;-66
2022/08/22 02:48:46;;;;;;;4.90;4.50;;;22.30;68.50;;;;;;5054807;28;20447;-66
2022/08/22 02:51:20;;;;;;;5.40;4.77;;;22.40;67.60;;;;;;5053208;28;20493;-67
2022/08/22 02:53:55;;;;;;;6.07;5.47;;;22.40;67.10;;;;;;5060097;28;20466;-66
2022/08/22 02:56:30;;;;;;;4.93;4.53;;;22.50;66.90;;;;;;5058563;28;20474;-68
2022/08/22 02:59:15;;;;;;;3.60;3.30;;;22.50;66.80;;;;;;5061358;28;20458;-67
2022/08/22 03:01:46;;;;;;;5.23;4.60;;;22.40;67.60;;;;;;5045864;28;20555;-69
2022/08/22 03:04:26;;;;;;;4.87;4.00;;;22.50;67.60;;;;;;5065731;28;20989;-66
2022/08/22 03:07:11;;;;;;;4.87;4.47;;;22.50;67.60;;;;;;5062658;28;20457;-67
2022/08/22 03:09:45;;;;;;;5.30;4.80;;;22.40;66.50;;;;;;5052285;28;20488;-67
2022/08/22 03:12:24;;;;;;;5.30;4.90;;;22.20;67.00;;;;;;5048513;28;20451;-69
2022/08/22 03:15:06;;;;;;;5.03;4.50;;;22.20;67.50;;;;;;5055611;28;20494;-68
2022/08/22 03:17:40;;;;;;;5.30;4.43;;;22.30;67.20;;;;;;5058586;28;20520;-66
2022/08/22 03:20:13;;;;;;;5.50;4.90;;;22.20;67.40;;;;;;5054080;28;20446;-67
2022/08/22 03:22:48;;;;;;;3.83;3.53;;;22.10;67.90;;;;;;5062003;28;20801;-70
2022/08/22 03:25:26;;;;;;;6.30;4.40;;;22.30;72.10;;;;;;5050568;28;20908;-68
2022/08/22 03:27:59;;;;;;;4.13;3.73;;;22.60;66.90;;;;;;5058067;28;20548;-66
2022/08/22 03:30:37;;;;;;;3.73;3.47;;;22.50;67.10;;;;;;5065698;28;20457;-68
2022/08/22 03:33:15;;;;;;;5.40;5.00;;;22.90;71.80;;;;;;5049603;28;20446;-67
2022/08/22 03:36:05;;;;;;;3.57;3.27;;;23.30;66.30;;;;;;5055641;28;20499;-67
2022/08/22 03:39:02;;;;;;;5.73;4.00;;;23.70;70.00;;;;;;5055472;28;20512;-66
2022/08/22 03:42:03;;;;;;;4.73;3.53;;;23.90;64.30;;;;;;5049575;28;20455;-67
2022/08/22 03:44:58;;;;;;;4.03;3.27;;;24.20;68.70;;;;;;5045147;28;20482;-67
2022/08/22 03:47:52;;;;;;;5.63;5.13;;;24.40;66.80;;;;;;5055047;28;20541;-68
2022/08/22 03:50:57;;;;;;;3.90;3.60;;;24.50;62.20;;;;;;5057563;28;20457;-67
2022/08/22 03:54:05;;;;;;;3.70;3.40;;;24.40;63.80;;;;;;5046687;28;20486;-67
2022/08/22 03:57:08;;;;;;;5.00;4.60;;;23.90;64.30;;;;;;5056671;28;20821;-68
2022/08/22 04:00:03;;;;;;;4.23;3.83;;;24.00;63.30;;;;;;5055232;28;20466;-67
2022/08/22 04:02:54;;;;;;;5.17;4.73;;;23.60;64.90;;;;;;5058174;28;20471;-67
2022/08/22 04:06:05;;;;;;;6.13;5.53;;;23.50;64.00;;;;;;5012315;28;20555;-67
2022/08/22 04:08:55;;;;;;;5.43;4.70;;;23.30;64.10;;;;;;5051198;28;20465;-69
2022/08/22 04:12:12;;;;;;;4.70;4.30;;;23.10;64.70;;;;;;5051878;28;20461;-68
2022/08/22 04:15:07;;;;;;;4.17;3.87;;;23.10;65.50;;;;;;5030653;28;20562;-67
2022/08/22 04:18:09;;;;;;;4.80;4.50;;;22.90;67.00;;;;;;5051847;28;20470;-66
2022/08/22 04:21:13;;;;;;;6.57;4.90;;;22.90;65.30;;;;;;5029538;28;20500;-66
2022/08/22 04:24:09;;;;;;;5.00;4.50;;;22.70;65.40;;;;;;5048418;28;20440;-67
2022/08/22 04:26:45;;;;;;;5.87;4.40;;;22.50;66.20;;;;;;5049111;28;20484;-66
2022/08/22 04:29:19;;;;;;;6.43;4.40;;;22.50;66.90;;;;;;5054173;28;20493;-71
2022/08/22 04:31:53;;;;;;;3.90;3.43;;;22.60;67.20;;;;;;5046021;28;20521;-67
2022/08/22 04:34:29;;;;;;;4.40;4.03;;;22.70;67.00;;;;;;5050148;28;20499;-67
2022/08/22 04:37:05;;;;;;;5.70;4.10;;;22.60;67.20;;;;;;5044582;28;20470;-70
2022/08/22 04:39:39;;;;;;;5.00;4.60;;;22.70;67.00;;;;;;5051112;28;20476;-67
2022/08/22 04:42:13;;;;;;;5.80;4.83;;;22.60;66.50;;;;;;5047982;28;20570;-67
2022/08/22 04:45:04;;;;;;;4.90;4.50;;;22.60;66.80;;;;;;5053200;28;20457;-67
2022/08/22 04:47:38;;;;;;;4.30;3.93;;;22.50;67.00;;;;;;5043467;28;20544;-66
2022/08/22 04:50:15;;;;;;;6.03;4.93;;;22.50;66.50;;;;;;5045610;28;20553;-70
2022/08/22 04:52:56;;;;;;;7.73;4.60;;;22.50;66.30;;;;;;5046263;28;20485;-70
2022/08/22 04:55:32;;;;;;;4.80;4.40;;;22.40;66.10;;;;;;5040686;28;20468;-67
2022/08/22 04:58:16;;;;;;;4.50;4.10;;;22.30;67.40;;;;;;5057204;28;20524;-67
2022/08/22 05:00:57;;;;;;;3.93;3.63;;;22.30;67.60;;;;;;5055105;28;20956;-67
2022/08/22 05:03:28;;;;;;;4.07;3.77;;;22.60;68.70;;;;;;5048466;28;20503;-66
2022/08/22 05:06:04;;;;;;;5.27;4.47;;;22.60;67.10;;;;;;5051087;28;20463;-69
2022/08/22 05:08:35;;;;;;;4.23;3.93;;;22.70;67.20;;;;;;5057635;28;20964;-67
2022/08/22 05:11:10;;;;;;;4.23;3.93;;;22.80;67.30;;;;;;5057429;28;20440;-67
2022/08/22 05:13:42;;;;;;;3.83;3.43;;;22.90;68.00;;;;;;5062357;28;20461;-67
2022/08/22 05:16:17;;;;;;;3.83;3.53;;;23.00;68.70;;;;;;5057280;28;20546;-67
2022/08/22 05:18:49;;;;;;;2.90;2.70;;;23.30;68.40;;;;;;5057154;28;20492;-66
2022/08/22 05:21:24;;;;;;;4.77;4.37;;;23.70;68.30;;;;;;5053779;28;20513;-68
2022/08/22 05:24:00;;;;;;;3.70;3.40;;;24.00;66.20;;;;;;5056201;28;20450;-67
2022/08/22 05:26:34;;;;;;;3.33;3.07;;;24.10;66.60;;;;;;5044598;28;20870;-68
2022/08/22 05:29:06;;;;;;;4.17;3.87;;;24.20;66.40;;;;;;5061892;28;20928;-67
2022/08/22 05:31:39;;;;;;;3.43;3.20;;;24.30;66.70;;;;;;5056075;28;20503;-68
2022/08/22 05:34:11;;;;;;;4.33;3.97;;;24.40;67.00;;;;;;5056926;28;20822;-68
2022/08/22 05:36:44;;;;;;;5.53;3.80;;;24.60;65.80;;;;;;5059092;28;20502;-67
2022/08/22 05:39:16;;;;;;;3.00;2.80;;;24.80;65.90;;;;;;5044647;28;20513;-67
2022/08/22 05:41:45;;;;;;;3.83;3.00;;;25.00;66.10;;;;;;5035970;28;20831;-67
2022/08/22 05:44:19;;;;;;;3.80;3.50;;;25.20;64.80;;;;;;5041161;28;20458;-67
2022/08/22 05:46:55;;;;;;;3.47;3.17;;;25.40;64.10;;;;;;5040449;28;20474;-72
2022/08/22 05:49:36;;;;;;;2.87;2.63;;;25.50;64.60;;;;;;5033377;28;20550;-67
2022/08/22 05:52:15;;;;;;;3.90;3.60;;;25.60;64.40;;;;;;5041070;28;20506;-67
2022/08/22 05:54:56;;;;;;;5.00;4.50;;;25.70;63.50;;;;;;5034731;28;20492;-68
2022/08/22 05:57:31;;;;;;;3.73;3.43;;;25.60;61.60;;;;;;5035065;28;20587;-67
2022/08/22 06:00:03;;;;;;;4.30;3.93;;;25.70;64.20;;;;;;5034910;28;21694;-70
2022/08/22 06:02:50;;;;;;;3.90;3.60;;;25.70;63.10;;;;;;5037985;28;20811;-66
2022/08/22 06:05:24;;;;;;;4.37;3.47;;;25.80;63.20;;;;;;5039269;28;20457;-69
2022/08/22 06:08:00;;;;;;;3.40;3.10;;;25.90;63.70;;;;;;5037031;28;20470;-67
2022/08/22 06:10:37;;;;;;;3.30;3.10;;;26.00;63.70;;;;;;5037024;28;20445;-68
2022/08/22 06:13:11;;;;;;;3.17;2.87;;;26.00;63.90;;;;;;5034949;28;20550;-67
2022/08/22 06:15:45;;;;;;;3.67;3.37;;;26.10;63.80;;;;;;5036538;28;21244;-67
2022/08/22 06:18:19;;;;;;;6.17;4.70;;;26.20;63.70;;;;;;5034890;28;20938;-67
2022/08/22 06:20:51;;;;;;;9.20;6.30;;;26.20;60.90;;;;;;5035119;28;20463;-72
2022/08/22 06:23:26;;;;;;;6.27;5.77;;;25.70;60.70;;;;;;5032579;28;20943;-71
2022/08/22 06:25:58;;;;;;;7.60;6.80;;;25.20;62.80;;;;;;5039807;28;20449;-68
2022/08/22 06:28:32;;;;;;;6.93;6.40;;;24.80;63.50;;;;;;5038435;28;20502;-71
2022/08/22 06:31:05;;;;;;;6.93;6.40;;;24.50;64.30;;;;;;5048819;28;20510;-70
2022/08/22 06:33:38;;;;;;;4.17;3.83;;;24.40;65.00;;;;;;5038641;28;20506;-67
2022/08/22 06:36:33;;;;;;;5.30;4.90;;;24.50;67.60;;;;;;5043087;28;20839;-67
2022/08/22 06:39:17;;;;;;;6.07;4.10;;;24.70;66.30;;;;;;5055121;28;20449;-66
2022/08/22 06:41:50;;;;;;;3.50;3.20;;;25.00;66.50;;;;;;5042326;28;20455;-67
2022/08/22 06:44:23;;;;;;;4.70;3.80;;;25.30;65.90;;;;;;5043637;28;20517;-67
2022/08/22 06:46:55;;;;;;;4.27;3.90;;;25.50;65.30;;;;;;5037052;28;20453;-66
2022/08/22 06:49:25;;;;;;;4.63;4.20;;;25.60;64.40;;;;;;5043071;28;20542;-67
2022/08/22 06:51:59;;;;;;;8.33;4.53;;;25.80;64.70;;;;;;5044766;28;20449;-67
2022/08/22 06:54:33;;;;;;;6.00;3.97;;;25.90;63.90;;;;;;5052292;28;20488;-66
2022/08/22 06:57:05;;;;;;;4.00;3.60;;;26.00;64.20;;;;;;5054420;28;20818;-67
2022/08/22 06:59:38;;;;;;;6.50;3.90;;;26.00;63.90;;;;;;5049343;28;20559;-69
2022/08/22 07:02:16;;;;;;;4.03;3.70;;;26.10;63.70;;;;;;5044363;28;20522;-73
2022/08/22 07:04:48;;;;;;;6.50;6.00;;;26.10;63.70;;;;;;5044251;28;20489;-69
2022/08/22 07:07:18;;;;;;;6.70;6.03;;;26.20;62.40;;;;;;5044974;28;20531;-71
2022/08/22 07:09:54;;;;;;;5.20;4.70;;;26.30;62.00;;;;;;5045343;28;20523;-69
2022/08/22 07:12:27;;;;;;;4.07;3.77;;;26.30;62.30;;;;;;5044384;28;20438;-71
2022/08/22 07:15:01;;;;;;;4.13;3.83;;;26.30;62.80;;;;;;5044139;28;20535;-70
2022/08/22 07:17:32;;;;;;;5.00;4.30;;;26.30;62.70;;;;;;5044520;28;20579;-72
2022/08/22 07:20:22;;;;;;;5.43;4.93;;;26.40;63.10;;;;;;5047048;28;20465;-71
2022/08/22 07:22:55;;;;;;;6.53;4.90;;;26.40;62.70;;;;;;5043135;28;20453;-69
2022/08/22 07:25:25;;;;;;;4.53;4.13;;;26.40;62.70;;;;;;5049910;28;20464;-69
2022/08/22 07:28:20;;;;;;;7.00;6.30;;;26.40;62.60;;;;;;5052678;28;20484;-70
2022/08/22 07:31:11;;;;;;;8.90;8.13;;;26.40;62.40;;;;;;5047085;28;20458;-70
2022/08/22 07:33:46;;;;;;;8.17;7.47;;;26.30;62.30;;;;;;5048249;28;20446;-69
2022/08/22 07:36:24;;;;;;;6.97;5.70;;;26.00;62.80;;;;;;5052068;28;20443;-70
2022/08/22 07:39:20;;;;;;;10.67;9.67;;;25.90;63.40;;;;;;5045847;28;20460;-72
2022/08/22 07:42:02;;;;;;;6.80;6.23;;;25.80;63.40;;;;;;5046197;28;20807;-71
2022/08/22 07:44:36;;;;;;;6.70;6.10;;;25.70;64.40;;;;;;5042546;28;20864;-70
2022/08/22 07:47:10;;;;;;;8.43;7.73;;;25.70;64.60;;;;;;5055135;28;20453;-70
2022/08/22 07:49:49;;;;;;;4.40;4.00;;;25.70;64.40;;;;;;5043060;28;20482;-71
2022/08/22 07:52:18;;;;;;;8.50;7.70;;;25.70;64.60;;;;;;5044009;28;20449;-70
2022/08/22 07:54:52;;;;;;;4.60;4.27;;;25.80;64.70;;;;;;5048392;28;20449;-69
2022/08/22 07:57:28;;;;;;;7.33;6.67;;;25.80;65.00;;;;;;5040390;28;20477;-71
2022/08/22 07:59:59;;;;;;;7.67;7.10;;;25.90;64.80;;;;;;5041561;28;20541;-70
2022/08/22 08:02:28;;;;;;;4.13;3.83;;;26.00;64.60;;;;;;5048843;28;20525;-70
2022/08/22 08:04:59;;;;;;;4.33;4.00;;;26.10;64.80;;;;;;5055414;28;20450;-70
2022/08/22 08:07:31;;;;;;;6.53;6.03;;;26.20;64.30;;;;;;5044742;28;20584;-71
2022/08/22 08:10:03;;;;;;;8.77;7.87;;;26.30;64.00;;;;;;5060211;28;20517;-70
2022/08/22 08:12:36;;;;;;;5.70;4.90;;;26.40;63.80;;;;;;5053467;28;20517;-71
2022/08/22 08:15:09;;;;;;;7.53;6.93;;;26.30;64.00;;;;;;5042705;28;20511;-71
2022/08/22 08:17:38;;;;;;;9.43;8.60;;;26.30;64.10;;;;;;5045081;28;20484;-73
2022/08/22 08:20:11;;;;;;;5.60;5.20;;;26.30;63.80;;;;;;5043697;28;20453;-71
2022/08/22 08:22:42;;;;;;;9.23;8.33;;;26.20;64.30;;;;;;5053386;28;20858;-71
2022/08/22 08:25:13;;;;;;;5.87;5.37;;;26.30;64.40;;;;;;5043867;28;20538;-71
2022/08/22 08:30:52;;;;;;;4.10;3.70;;;26.30;64.40;;;;;;5007226;28;20463;-71
2022/08/22 08:33:24;;;;;;;8.40;7.70;;;26.30;64.40;;;;;;4998973;28;20532;-70
2022/08/22 08:35:56;;;;;;;6.97;6.37;;;26.30;64.40;;;;;;5020949;28;20485;-70
2022/08/22 08:38:36;;;;;;;8.70;7.73;;;26.40;64.20;;;;;;5050623;28;20472;-70
2022/08/22 08:41:41;;;;;;;5.03;4.60;;;26.40;64.60;;;;;;5055257;28;20485;-70
2022/08/22 08:44:25;;;;;;;5.30;4.80;;;26.40;64.20;;;;;;5046584;28;20489;-70
2022/08/22 08:47:17;;;;;;;5.67;4.20;;;26.40;64.30;;;;;;5045555;28;20482;-70
2022/08/22 08:50:05;;;;;;;7.50;6.80;;;26.50;64.10;;;;;;5041512;28;20497;-70
2022/08/22 08:53:08;;;;;;;5.70;5.07;;;26.60;64.30;;;;;;5041553;28;20496;-70
2022/08/22 08:55:45;;;;;;;5.27;4.80;;;26.60;64.10;;;;;;5038123;28;20472;-70
2022/08/22 08:58:39;;;;;;;5.20;4.40;;;26.60;64.20;;;;;;5042793;28;20470;-71
2022/08/22 09:01:47;;;;;;;4.80;4.40;;;26.60;64.10;;;;;;5042051;28;20538;-71
2022/08/22 09:04:59;;;;;;;4.03;3.70;;;26.70;64.40;;;;;;5045756;28;20517;-72
2022/08/22 09:07:51;;;;;;;5.93;5.33;;;26.70;64.70;;;;;;5039066;28;20946;-71
2022/08/22 09:10:46;;;;;;;5.30;4.90;;;26.70;64.90;;;;;;5035780;28;20511;-72
2022/08/22 09:13:32;;;;;;;5.53;5.10;;;26.70;64.80;;;;;;5039004;28;20600;-74
2022/08/22 09:16:33;;;;;;;6.70;4.97;;;26.80;64.80;;;;;;5040241;28;21366;-74
2022/08/22 09:19:37;;;;;;;5.27;4.00;;;26.70;64.80;;;;;;5039353;28;20514;-71
2022/08/22 09:22:29;;;;;;;5.87;5.37;;;26.70;64.50;;;;;;5044966;28;20455;-71
2022/08/22 09:25:24;;;;;;;5.80;5.10;;;26.70;64.70;;;;;;5043302;28;20452;-71
2022/08/22 09:28:00;;;;;;;5.07;4.67;;;26.70;64.90;;;;;;5043848;28;20474;-72
2022/08/22 09:30:44;;;;;;;5.80;5.30;;;26.70;64.80;;;;;;5047068;28;20870;-73
2022/08/22 09:33:24;;;;;;;6.47;5.97;;;26.70;64.90;;;;;;5039275;28;20542;-72
2022/08/22 09:36:02;;;;;;;6.50;6.00;;;26.80;64.80;;;;;;5045623;28;20454;-72
2022/08/22 09:38:47;;;;;;;5.13;4.67;;;26.80;64.50;;;;;;5044055;28;20473;-72
2022/08/22 09:41:35;;;;;;;5.47;5.07;;;26.90;64.30;;;;;;5050944;28;20451;-72
2022/08/22 09:44:16;;;;;;;5.60;5.13;;;26.90;64.10;;;;;;5039213;28;20577;-71
2022/08/22 09:46:55;;;;;;;5.63;4.87;;;26.80;64.30;;;;;;5056696;28;20475;-72
2022/08/22 09:49:36;;;;;;;5.63;5.13;;;26.80;64.30;;;;;;5043476;28;20995;-72
2022/08/22 09:52:19;;;;;;;6.50;6.00;;;26.80;64.10;;;;;;5039851;28;20495;-76
2022/08/22 09:55:09;;;;;;;5.33;4.90;;;26.90;63.70;;;;;;5050337;28;21238;-71
2022/08/22 09:57:50;;;;;;;5.47;4.97;;;26.90;63.70;;;;;;5045061;28;20492;-71
2022/08/22 10:00:31;;;;;;;5.03;4.63;;;26.80;64.10;;;;;;5054093;28;20992;-72
2022/08/22 10:03:10;;;;;;;5.73;5.33;;;26.80;64.00;;;;;;5036712;28;20519;-72
2022/08/22 10:05:45;;;;;;;5.90;5.50;;;26.90;64.10;;;;;;5042889;28;20498;-72
2022/08/22 10:08:32;;;;;;;5.73;5.30;;;27.00;63.50;;;;;;5047504;28;20482;-73
2022/08/22 10:11:10;;;;;;;8.37;5.70;;;27.00;63.50;;;;;;5036355;28;20487;-72
2022/08/22 10:14:02;;;;;;;6.33;5.77;;;26.90;63.80;;;;;;5038005;28;20448;-73
2022/08/22 10:16:42;;;;;;;5.67;4.93;;;26.90;63.50;;;;;;5054170;28;20500;-73
2022/08/22 10:19:19;;;;;;;6.17;5.67;;;26.90;63.50;;;;;;5044296;28;20849;-72
2022/08/22 10:22:06;;;;;;;6.90;6.40;;;27.00;62.70;;;;;;5059707;28;20465;-73
2022/08/22 10:24:45;;;;;;;7.00;6.40;;;27.00;61.50;;;;;;5042692;28;20833;-72
2022/08/22 10:27:17;;;;;;;6.10;4.90;;;27.00;60.60;;;;;;5052998;28;20457;-72
2022/08/22 10:30:01;;;;;;;5.50;5.10;;;26.90;62.20;;;;;;5056169;28;20447;-72
2022/08/22 10:32:36;;;;;;;6.83;6.33;;;26.80;62.60;;;;;;5076802;28;20500;-72
2022/08/22 10:35:16;;;;;;;5.67;5.27;;;26.90;61.90;;;;;;5039344;28;20452;-72
2022/08/22 10:37:53;;;;;;;6.90;5.83;;;26.90;63.00;;;;;;5039621;28;20460;-73
2022/08/22 10:40:28;;;;;;;6.23;4.70;;;26.80;64.20;;;;;;5054092;28;20502;-72
2022/08/22 10:43:01;;;;;;;6.23;5.83;;;26.80;65.10;;;;;;5054625;28;20530;-72
2022/08/22 10:45:33;;;;;;;5.90;5.50;;;26.80;63.60;;;;;;5047410;28;20516;-72
2022/08/22 10:48:32;;;;;;;7.17;6.57;;;27.00;62.80;;;;;;5057961;28;20452;-72
2022/08/22 10:51:19;;;;;;;5.77;5.27;;;27.10;61.30;;;;;;5038290;28;20557;-71
2022/08/22 10:54:03;;;;;;;6.03;5.47;;;27.10;62.20;;;;;;5036526;28;20573;-72
2022/08/22 10:56:40;;;;;;;5.87;5.47;;;27.10;62.40;;;;;;5055064;28;20867;-71
2022/08/22 10:59:28;;;;;;;5.60;5.20;;;27.10;62.00;;;;;;5048849;28;20941;-71
2022/08/22 11:02:10;;;;;;;6.30;5.77;;;27.10;62.30;;;;;;5039734;28;20542;-71
2022/08/22 11:04:57;;;;;;;5.90;5.03;;;27.10;62.20;;;;;;5042403;28;20518;-76
2022/08/22 11:07:43;;;;;;;6.53;5.90;;;27.20;62.10;;;;;;5041080;28;20521;-72
2022/08/22 11:10:26;;;;;;;7.33;6.73;;;27.30;62.00;;;;;;5037742;28;20531;-73
2022/08/22 11:13:10;;;;;;;7.27;5.33;;;27.20;62.40;;;;;;5044960;28;20460;-70
2022/08/22 11:16:08;;;;;;;5.80;5.40;;;27.20;62.50;;;;;;5050722;28;20449;-71
2022/08/22 11:18:58;;;;;;;5.63;5.13;;;27.20;63.10;;;;;;5037927;28;20510;-70
2022/08/22 11:22:03;;;;;;;7.63;6.47;;;27.30;62.70;;;;;;5044359;28;20452;-71
2022/08/22 11:24:59;;;;;;;6.77;6.17;;;27.30;62.80;;;;;;5044796;28;20454;-72
2022/08/22 11:27:39;;;;;;;6.13;5.63;;;27.40;62.80;;;;;;5044302;28;21018;-71
2022/08/22 11:30:14;;;;;;;5.63;5.13;;;27.40;62.90;;;;;;5038103;28;20549;-71
2022/08/22 11:33:23;;;;;;;7.90;6.20;;;27.50;62.50;;;;;;5044594;28;20451;-72
2022/08/22 11:36:24;;;;;;;6.90;6.23;;;27.40;62.70;;;;;;5049387;28;20470;-71
2022/08/22 11:39:04;;;;;;;7.40;6.70;;;27.50;62.50;;;;;;5054912;28;20479;-70
2022/08/22 11:41:45;;;;;;;5.77;5.37;;;27.70;62.20;;;;;;5043997;28;20453;-71
2022/08/22 11:44:26;;;;;;;5.77;5.27;;;27.90;61.20;;;;;;5048990;28;20484;-70
2022/08/22 11:46:57;;;;;;;5.30;5.00;;;28.20;60.70;;;;;;5043829;28;20528;-72
2022/08/22 11:49:47;;;;;;;5.73;5.33;;;28.40;60.30;;;;;;5050133;28;20554;-70
2022/08/22 11:52:29;;;;;;;5.20;4.70;;;28.60;59.80;;;;;;5049166;28;20466;-72
2022/08/22 11:55:19;;;;;;;5.40;4.90;;;28.90;57.30;;;;;;5058301;28;20468;-70
2022/08/22 11:57:52;;;;;;;5.50;4.70;;;29.10;57.80;;;;;;5049827;28;20522;-71
2022/08/22 12:00:31;;;;;;;4.50;4.10;;;29.10;57.80;;;;;;5040136;28;20477;-71
2022/08/22 12:03:35;;;;;;;5.70;5.20;;;28.80;59.10;;;;;;5044431;28;20493;-71
2022/08/22 12:06:25;;;;;;;5.50;5.00;;;28.60;59.50;;;;;;5021313;28;21013;-71
2022/08/22 12:09:11;;;;;;;6.70;5.00;;;28.30;60.00;;;;;;5039733;28;20455;-69
2022/08/22 12:11:48;;;;;;;14.90;5.70;;;28.10;60.30;;;;;;5034990;28;20490;-70
2022/08/22 12:14:22;;;;;;;8.50;5.93;;;28.10;59.90;;;;;;5034444;28;20462;-70
2022/08/22 12:17:11;;;;;;;9.40;6.00;;;28.00;60.90;;;;;;5045208;28;20516;-73
2022/08/22 12:20:12;;;;;;;5.53;5.00;;;28.20;61.90;;;;;;5046723;28;20467;-71
2022/08/22 12:23:12;;;;;;;4.43;4.13;;;28.80;60.40;;;;;;5042110;28;20797;-70
2022/08/22 12:25:55;;;;;;;6.00;5.40;;;29.40;54.70;;;;;;5047243;28;20501;-71
2022/08/22 12:28:32;;;;;;;6.50;5.30;;;29.90;56.10;;;;;;5042219;28;20515;-70
2022/08/22 12:31:12;;;;;;;5.50;4.77;;;30.10;57.30;;;;;;5044206;28;20445;-72
2022/08/22 12:34:07;;;;;;;8.03;5.77;;;30.30;57.70;;;;;;5047023;28;20882;-70
2022/08/22 12:37:01;;;;;;;5.60;4.80;;;30.60;57.10;;;;;;5054439;28;20871;-70
2022/08/22 12:39:49;;;;;;;5.20;4.60;;;30.60;57.70;;;;;;5053199;28;20467;-71
2022/08/22 12:42:35;;;;;;;4.93;4.30;;;30.40;57.60;;;;;;5055574;28;20508;-71
2022/08/22 12:45:30;;;;;;;4.90;4.50;;;29.90;57.60;;;;;;5039103;28;20452;-71
2022/08/22 12:48:09;;;;;;;6.03;5.43;;;29.50;59.00;;;;;;5047742;28;20939;-70
2022/08/22 12:50:45;;;;;;;8.07;5.70;;;29.40;58.70;;;;;;5038334;28;20481;-70
2022/08/22 12:53:52;;;;;;;5.07;4.67;;;29.40;57.10;;;;;;5043156;28;20458;-70
2022/08/22 12:56:33;;;;;;;4.57;4.27;;;29.40;56.20;;;;;;5038006;28;20467;-71
2022/08/22 12:59:15;;;;;;;7.07;5.47;;;29.50;56.60;;;;;;5043299;28;20463;-70
2022/08/22 13:01:47;;;;;;;4.87;4.50;;;29.40;56.40;;;;;;5043816;28;20456;-70
2022/08/22 13:04:20;;;;;;;5.40;4.63;;;29.30;56.20;;;;;;5051688;28;20876;-69
2022/08/22 13:07:09;;;;;;;5.07;3.67;;;28.90;56.40;;;;;;5050303;28;20522;-71
2022/08/22 13:09:40;;;;;;;4.20;3.90;;;28.50;55.60;;;;;;5044422;28;20453;-70
2022/08/22 13:12:23;;;;;;;4.33;4.03;;;28.40;55.00;;;;;;5041107;28;20846;-70
2022/08/22 13:14:56;;;;;;;5.10;3.43;;;28.50;55.60;;;;;;5036393;28;20566;-70
2022/08/22 13:17:25;;;;;;;3.90;3.60;;;28.70;55.60;;;;;;5047613;28;20505;-70
2022/08/22 13:20:00;;;;;;;4.20;3.80;;;28.90;55.30;;;;;;5039996;28;20976;-71
2022/08/22 13:22:33;;;;;;;3.30;3.10;;;29.00;54.60;;;;;;5038006;28;20497;-70
2022/08/22 13:25:05;;;;;;;3.40;3.20;;;29.10;53.20;;;;;;5046892;28;21008;-70
2022/08/22 13:27:45;;;;;;;3.50;3.30;;;29.20;54.10;;;;;;5042504;28;20539;-70
2022/08/22 13:30:22;;;;;;;4.10;3.90;;;29.30;54.10;;;;;;5046872;28;20936;-69
2022/08/22 13:32:53;;;;;;;5.00;3.80;;;29.40;54.20;;;;;;5038266;28;20467;-69
2022/08/22 13:35:26;;;;;;;4.13;3.83;;;29.20;54.60;;;;;;5046662;28;20511;-69
2022/08/22 13:38:04;;;;;;;4.13;3.80;;;29.30;54.10;;;;;;5041327;28;20462;-68
2022/08/22 13:40:33;;;;;;;4.53;3.80;;;29.30;54.60;;;;;;5049361;28;20527;-68
2022/08/22 13:43:09;;;;;;;7.03;4.20;;;29.30;54.40;;;;;;5040823;28;20465;-66
2022/08/22 13:45:42;;;;;;;4.43;4.03;;;29.30;54.70;;;;;;5044316;28;20458;-67
2022/08/22 13:48:14;;;;;;;4.67;3.77;;;29.30;54.70;;;;;;5038161;28;20580;-67
2022/08/22 13:50:58;;;;;;;3.67;3.37;;;29.20;54.40;;;;;;5041728;28;20463;-67
2022/08/22 13:53:34;;;;;;;4.57;3.97;;;29.20;54.10;;;;;;5046537;28;20446;-66
2022/08/22 13:56:10;;;;;;;9.63;4.50;;;29.20;54.80;;;;;;5043541;28;20488;-69
2022/08/22 13:58:46;;;;;;;6.37;4.53;;;29.20;54.60;;;;;;5047445;28;20449;-70
2022/08/22 14:01:34;;;;;;;8.17;4.20;;;29.30;54.90;;;;;;5046053;28;20863;-69
2022/08/22 14:04:12;;;;;;;5.20;4.57;;;29.40;54.70;;;;;;5042062;28;20486;-70
2022/08/22 14:07:23;;;;;;;4.23;3.77;;;29.30;54.60;;;;;;5045750;28;20458;-72